sensor_id;sensor_type;location;lat;lon;timestamp;P1;durP1;ratioP1;P2;durP2;ratioP2
51987;SDS011;38003;52.012;4.346;2023-04-03T00:01:17;2.83;;;1.60;;
51987;SDS011;38003;52.012;4.346;2023-04-03T00:03:46;3.80;;;1.50;;
51987;SDS011;38003;52.012;4.346;2023-04-03T00:06:14;4.33;;;1.40;;
51987;SDS011;38003;52.012;4.346;2023-04-03T00:08:42;1.80;;;1.30;;
51987;SDS011;38003;52.012;4.346;2023-04-03T00:11:12;1.77;;;1.50;;
51987;SDS011;38003;52.012;4.346;2023-04-03T00:13:41;2.77;;;1.60;;
51987;SDS011;38003;52.012;4.346;2023-04-03T00:16:10;1.40;;;1.30;;
51987;SDS011;38003;52.012;4.346;2023-04-03T00:18:39;3.70;;;1.60;;
51987;SDS011;38003;52.012;4.346;2023-04-03T00:21:09;2.13;;;1.67;;
51987;SDS011;38003;52.012;4.346;2023-04-03T00:23:37;1.80;;;1.60;;
51987;SDS011;38003;52.012;4.346;2023-04-03T00:26:05;3.40;;;1.57;;
51987;SDS011;38003;52.012;4.346;2023-04-03T00:28:35;3.03;;;1.47;;
51987;SDS011;38003;52.012;4.346;2023-04-03T00:31:03;3.50;;;1.60;;
51987;SDS011;38003;52.012;4.346;2023-04-03T00:33:31;2.83;;;1.40;;
51987;SDS011;38003;52.012;4.346;2023-04-03T00:36:04;3.60;;;1.50;;
51987;SDS011;38003;52.012;4.346;2023-04-03T00:38:33;2.50;;;1.50;;
51987;SDS011;38003;52.012;4.346;2023-04-03T00:41:01;3.27;;;1.73;;
51987;SDS011;38003;52.012;4.346;2023-04-03T00:43:30;3.43;;;1.70;;
51987;SDS011;38003;52.012;4.346;2023-04-03T00:45:59;2.70;;;1.60;;
51987;SDS011;38003;52.012;4.346;2023-04-03T00:48:29;3.00;;;1.20;;
51987;SDS011;38003;52.012;4.346;2023-04-03T00:50:58;3.87;;;2.00;;
51987;SDS011;38003;52.012;4.346;2023-04-03T00:53:27;2.03;;;1.67;;
51987;SDS011;38003;52.012;4.346;2023-04-03T00:55:57;4.53;;;1.40;;
51987;SDS011;38003;52.012;4.346;2023-04-03T00:58:28;2.50;;;1.30;;
51987;SDS011;38003;52.012;4.346;2023-04-03T01:01:02;3.13;;;1.50;;
51987;SDS011;38003;52.012;4.346;2023-04-03T01:03:31;3.77;;;1.40;;
51987;SDS011;38003;52.012;4.346;2023-04-03T01:05:59;1.93;;;1.30;;
51987;SDS011;38003;52.012;4.346;2023-04-03T01:08:27;2.00;;;1.53;;
51987;SDS011;38003;52.012;4.346;2023-04-03T01:10:56;2.33;;;1.40;;
51987;SDS011;38003;52.012;4.346;2023-04-03T01:13:26;1.80;;;1.40;;
51987;SDS011;38003;52.012;4.346;2023-04-03T01:15:55;2.23;;;1.47;;
51987;SDS011;38003;52.012;4.346;2023-04-03T01:18:25;1.63;;;1.33;;
51987;SDS011;38003;52.012;4.346;2023-04-03T01:23:40;2.67;;;1.53;;
51987;SDS011;38003;52.012;4.346;2023-04-03T01:26:12;3.10;;;1.73;;
51987;SDS011;38003;52.012;4.346;2023-04-03T01:28:40;3.73;;;1.67;;
51987;SDS011;38003;52.012;4.346;2023-04-03T01:31:12;2.63;;;1.53;;
51987;SDS011;38003;52.012;4.346;2023-04-03T01:33:43;2.90;;;1.50;;
51987;SDS011;38003;52.012;4.346;2023-04-03T01:36:13;1.93;;;1.70;;
51987;SDS011;38003;52.012;4.346;2023-04-03T01:38:42;3.20;;;1.87;;
51987;SDS011;38003;52.012;4.346;2023-04-03T01:41:10;2.80;;;1.60;;
51987;SDS011;38003;52.012;4.346;2023-04-03T01:43:38;2.07;;;1.57;;
51987;SDS011;38003;52.012;4.346;2023-04-03T01:46:06;3.10;;;1.63;;
51987;SDS011;38003;52.012;4.346;2023-04-03T01:48:35;2.90;;;1.83;;
51987;SDS011;38003;52.012;4.346;2023-04-03T01:51:04;3.00;;;1.80;;
51987;SDS011;38003;52.012;4.346;2023-04-03T01:53:32;1.93;;;1.50;;
51987;SDS011;38003;52.012;4.346;2023-04-03T01:56:01;2.33;;;1.60;;
51987;SDS011;38003;52.012;4.346;2023-04-03T01:58:29;2.77;;;1.50;;
51987;SDS011;38003;52.012;4.346;2023-04-03T02:00:57;2.20;;;1.30;;
51987;SDS011;38003;52.012;4.346;2023-04-03T02:03:25;2.33;;;1.57;;
51987;SDS011;38003;52.012;4.346;2023-04-03T02:05:53;2.40;;;1.73;;
51987;SDS011;38003;52.012;4.346;2023-04-03T02:08:23;1.87;;;1.60;;
51987;SDS011;38003;52.012;4.346;2023-04-03T02:10:51;3.17;;;1.63;;
51987;SDS011;38003;52.012;4.346;2023-04-03T02:13:20;2.03;;;1.50;;
51987;SDS011;38003;52.012;4.346;2023-04-03T02:15:48;3.30;;;1.63;;
51987;SDS011;38003;52.012;4.346;2023-04-03T02:18:16;2.87;;;1.67;;
51987;SDS011;38003;52.012;4.346;2023-04-03T02:20:45;2.50;;;1.60;;
51987;SDS011;38003;52.012;4.346;2023-04-03T02:23:14;2.87;;;1.80;;
51987;SDS011;38003;52.012;4.346;2023-04-03T02:25:43;1.57;;;1.40;;
51987;SDS011;38003;52.012;4.346;2023-04-03T02:28:11;2.60;;;1.20;;
51987;SDS011;38003;52.012;4.346;2023-04-03T02:30:40;3.80;;;1.67;;
51987;SDS011;38003;52.012;4.346;2023-04-03T02:33:08;2.03;;;1.63;;
51987;SDS011;38003;52.012;4.346;2023-04-03T02:35:36;2.07;;;1.60;;
51987;SDS011;38003;52.012;4.346;2023-04-03T02:38:04;1.60;;;1.40;;
51987;SDS011;38003;52.012;4.346;2023-04-03T02:40:33;2.80;;;1.60;;
51987;SDS011;38003;52.012;4.346;2023-04-03T02:43:03;2.60;;;1.50;;
51987;SDS011;38003;52.012;4.346;2023-04-03T02:45:31;2.73;;;1.57;;
51987;SDS011;38003;52.012;4.346;2023-04-03T02:47:59;2.57;;;1.43;;
51987;SDS011;38003;52.012;4.346;2023-04-03T02:50:27;2.43;;;1.57;;
51987;SDS011;38003;52.012;4.346;2023-04-03T02:52:55;2.83;;;1.40;;
51987;SDS011;38003;52.012;4.346;2023-04-03T02:55:24;2.43;;;1.53;;
51987;SDS011;38003;52.012;4.346;2023-04-03T02:57:52;2.60;;;1.40;;
51987;SDS011;38003;52.012;4.346;2023-04-03T03:00:21;2.43;;;1.30;;
51987;SDS011;38003;52.012;4.346;2023-04-03T03:02:50;1.70;;;1.50;;
51987;SDS011;38003;52.012;4.346;2023-04-03T03:05:18;3.10;;;1.40;;
51987;SDS011;38003;52.012;4.346;2023-04-03T03:07:46;3.07;;;1.70;;
51987;SDS011;38003;52.012;4.346;2023-04-03T03:10:14;3.53;;;1.70;;
51987;SDS011;38003;52.012;4.346;2023-04-03T03:12:43;2.47;;;1.70;;
51987;SDS011;38003;52.012;4.346;2023-04-03T03:15:11;3.07;;;1.57;;
51987;SDS011;38003;52.012;4.346;2023-04-03T03:17:41;1.70;;;1.50;;
51987;SDS011;38003;52.012;4.346;2023-04-03T03:20:10;3.10;;;1.67;;
51987;SDS011;38003;52.012;4.346;2023-04-03T03:22:38;2.90;;;1.53;;
51987;SDS011;38003;52.012;4.346;2023-04-03T03:25:06;3.30;;;1.57;;
51987;SDS011;38003;52.012;4.346;2023-04-03T03:27:35;2.80;;;1.57;;
51987;SDS011;38003;52.012;4.346;2023-04-03T03:30:03;2.60;;;1.80;;
51987;SDS011;38003;52.012;4.346;2023-04-03T03:32:32;2.87;;;1.57;;
51987;SDS011;38003;52.012;4.346;2023-04-03T03:35:01;3.77;;;1.97;;
51987;SDS011;38003;52.012;4.346;2023-04-03T03:37:30;2.13;;;1.60;;
51987;SDS011;38003;52.012;4.346;2023-04-03T03:39:58;4.27;;;1.70;;
51987;SDS011;38003;52.012;4.346;2023-04-03T03:42:26;3.20;;;1.80;;
51987;SDS011;38003;52.012;4.346;2023-04-03T03:44:54;5.23;;;1.70;;
51987;SDS011;38003;52.012;4.346;2023-04-03T03:47:22;2.53;;;1.50;;
51987;SDS011;38003;52.012;4.346;2023-04-03T03:49:51;2.50;;;1.80;;
51987;SDS011;38003;52.012;4.346;2023-04-03T03:52:21;2.57;;;1.53;;
51987;SDS011;38003;52.012;4.346;2023-04-03T03:54:49;3.33;;;2.30;;
51987;SDS011;38003;52.012;4.346;2023-04-03T03:57:17;2.63;;;1.57;;
51987;SDS011;38003;52.012;4.346;2023-04-03T03:59:45;3.97;;;2.20;;
51987;SDS011;38003;52.012;4.346;2023-04-03T04:02:15;2.23;;;1.87;;
51987;SDS011;38003;52.012;4.346;2023-04-03T04:04:43;3.87;;;2.00;;
51987;SDS011;38003;52.012;4.346;2023-04-03T04:07:12;3.77;;;2.20;;
51987;SDS011;38003;52.012;4.346;2023-04-03T04:09:41;3.23;;;2.03;;
51987;SDS011;38003;52.012;4.346;2023-04-03T04:12:09;4.30;;;2.07;;
51987;SDS011;38003;52.012;4.346;2023-04-03T04:14:37;3.53;;;2.10;;
51987;SDS011;38003;52.012;4.346;2023-04-03T04:17:06;3.23;;;2.03;;
51987;SDS011;38003;52.012;4.346;2023-04-03T04:19:34;3.33;;;2.07;;
51987;SDS011;38003;52.012;4.346;2023-04-03T04:22:02;3.53;;;1.90;;
51987;SDS011;38003;52.012;4.346;2023-04-03T04:24:30;3.93;;;1.67;;
51987;SDS011;38003;52.012;4.346;2023-04-03T04:27:00;3.17;;;1.77;;
51987;SDS011;38003;52.012;4.346;2023-04-03T04:29:28;3.37;;;2.10;;
51987;SDS011;38003;52.012;4.346;2023-04-03T04:32:01;2.77;;;2.10;;
51987;SDS011;38003;52.012;4.346;2023-04-03T04:34:29;3.10;;;1.87;;
51987;SDS011;38003;52.012;4.346;2023-04-03T04:36:58;4.90;;;2.20;;
51987;SDS011;38003;52.012;4.346;2023-04-03T04:39:26;2.63;;;1.90;;
51987;SDS011;38003;52.012;4.346;2023-04-03T04:41:54;6.40;;;2.27;;
51987;SDS011;38003;52.012;4.346;2023-04-03T04:44:24;4.80;;;1.80;;
51987;SDS011;38003;52.012;4.346;2023-04-03T04:46:52;4.33;;;1.80;;
51987;SDS011;38003;52.012;4.346;2023-04-03T04:49:20;5.23;;;1.97;;
51987;SDS011;38003;52.012;4.346;2023-04-03T04:51:48;2.17;;;1.80;;
51987;SDS011;38003;52.012;4.346;2023-04-03T04:54:17;6.37;;;2.37;;
51987;SDS011;38003;52.012;4.346;2023-04-03T04:56:46;3.17;;;1.90;;
51987;SDS011;38003;52.012;4.346;2023-04-03T04:59:15;4.47;;;2.03;;
51987;SDS011;38003;52.012;4.346;2023-04-03T05:01:47;3.23;;;2.03;;
51987;SDS011;38003;52.012;4.346;2023-04-03T05:04:15;2.83;;;2.10;;
51987;SDS011;38003;52.012;4.346;2023-04-03T05:06:44;2.93;;;2.17;;
51987;SDS011;38003;52.012;4.346;2023-04-03T05:09:12;3.73;;;2.10;;
51987;SDS011;38003;52.012;4.346;2023-04-03T05:11:40;3.97;;;2.27;;
51987;SDS011;38003;52.012;4.346;2023-04-03T05:14:09;4.53;;;2.40;;
51987;SDS011;38003;52.012;4.346;2023-04-03T05:16:37;5.17;;;2.10;;
51987;SDS011;38003;52.012;4.346;2023-04-03T05:19:06;6.83;;;4.07;;
51987;SDS011;38003;52.012;4.346;2023-04-03T05:21:35;3.17;;;2.30;;
51987;SDS011;38003;52.012;4.346;2023-04-03T05:24:03;4.37;;;2.20;;
51987;SDS011;38003;52.012;4.346;2023-04-03T05:26:35;3.27;;;2.30;;
51987;SDS011;38003;52.012;4.346;2023-04-03T05:29:03;4.43;;;1.90;;
51987;SDS011;38003;52.012;4.346;2023-04-03T05:31:31;6.50;;;2.30;;
51987;SDS011;38003;52.012;4.346;2023-04-03T05:34:00;5.27;;;2.33;;
51987;SDS011;38003;52.012;4.346;2023-04-03T05:36:29;3.73;;;2.40;;
51987;SDS011;38003;52.012;4.346;2023-04-03T05:38:58;3.80;;;2.20;;
51987;SDS011;38003;52.012;4.346;2023-04-03T05:41:26;3.83;;;2.23;;
51987;SDS011;38003;52.012;4.346;2023-04-03T05:43:55;5.10;;;2.30;;
51987;SDS011;38003;52.012;4.346;2023-04-03T05:46:23;3.63;;;2.63;;
51987;SDS011;38003;52.012;4.346;2023-04-03T05:48:51;3.60;;;2.37;;
51987;SDS011;38003;52.012;4.346;2023-04-03T05:51:22;3.83;;;2.40;;
51987;SDS011;38003;52.012;4.346;2023-04-03T05:53:55;4.70;;;2.77;;
51987;SDS011;38003;52.012;4.346;2023-04-03T05:56:24;4.10;;;2.70;;
51987;SDS011;38003;52.012;4.346;2023-04-03T05:58:52;3.90;;;2.17;;
51987;SDS011;38003;52.012;4.346;2023-04-03T06:01:21;7.17;;;2.27;;
51987;SDS011;38003;52.012;4.346;2023-04-03T06:03:49;3.43;;;2.37;;
51987;SDS011;38003;52.012;4.346;2023-04-03T06:06:18;5.80;;;2.50;;
51987;SDS011;38003;52.012;4.346;2023-04-03T06:08:48;4.47;;;2.23;;
51987;SDS011;38003;52.012;4.346;2023-04-03T06:11:17;6.63;;;2.30;;
51987;SDS011;38003;52.012;4.346;2023-04-03T06:13:47;3.27;;;2.03;;
51987;SDS011;38003;52.012;4.346;2023-04-03T06:16:15;3.97;;;2.30;;
51987;SDS011;38003;52.012;4.346;2023-04-03T06:18:45;4.93;;;2.70;;
51987;SDS011;38003;52.012;4.346;2023-04-03T06:21:13;4.50;;;2.27;;
51987;SDS011;38003;52.012;4.346;2023-04-03T06:23:42;4.80;;;2.10;;
51987;SDS011;38003;52.012;4.346;2023-04-03T06:26:10;4.50;;;2.20;;
51987;SDS011;38003;52.012;4.346;2023-04-03T06:28:40;4.70;;;2.43;;
51987;SDS011;38003;52.012;4.346;2023-04-03T06:31:08;4.73;;;2.17;;
51987;SDS011;38003;52.012;4.346;2023-04-03T06:33:36;4.20;;;2.33;;
51987;SDS011;38003;52.012;4.346;2023-04-03T06:36:04;4.53;;;2.50;;
51987;SDS011;38003;52.012;4.346;2023-04-03T06:38:33;4.27;;;2.40;;
51987;SDS011;38003;52.012;4.346;2023-04-03T06:41:01;3.27;;;2.07;;
51987;SDS011;38003;52.012;4.346;2023-04-03T06:43:30;5.47;;;2.50;;
51987;SDS011;38003;52.012;4.346;2023-04-03T06:46:01;4.87;;;2.27;;
51987;SDS011;38003;52.012;4.346;2023-04-03T06:48:29;4.47;;;2.33;;
51987;SDS011;38003;52.012;4.346;2023-04-03T06:50:58;6.63;;;2.63;;
51987;SDS011;38003;52.012;4.346;2023-04-03T06:53:26;4.93;;;2.83;;
51987;SDS011;38003;52.012;4.346;2023-04-03T06:55:54;4.27;;;2.50;;
51987;SDS011;38003;52.012;4.346;2023-04-03T06:58:22;5.13;;;2.23;;
51987;SDS011;38003;52.012;4.346;2023-04-03T07:00:50;8.50;;;2.40;;
51987;SDS011;38003;52.012;4.346;2023-04-03T07:03:20;5.07;;;2.17;;
51987;SDS011;38003;52.012;4.346;2023-04-03T07:05:48;4.43;;;2.43;;
51987;SDS011;38003;52.012;4.346;2023-04-03T07:08:16;6.63;;;3.00;;
51987;SDS011;38003;52.012;4.346;2023-04-03T07:10:44;4.77;;;2.53;;
51987;SDS011;38003;52.012;4.346;2023-04-03T07:13:13;4.90;;;2.73;;
51987;SDS011;38003;52.012;4.346;2023-04-03T07:15:41;5.67;;;2.93;;
51987;SDS011;38003;52.012;4.346;2023-04-03T07:18:09;4.70;;;2.93;;
51987;SDS011;38003;52.012;4.346;2023-04-03T07:20:39;8.23;;;3.00;;
51987;SDS011;38003;52.012;4.346;2023-04-03T07:23:07;6.30;;;3.00;;
51987;SDS011;38003;52.012;4.346;2023-04-03T07:25:36;4.07;;;2.80;;
51987;SDS011;38003;52.012;4.346;2023-04-03T07:28:04;6.10;;;2.97;;
51987;SDS011;38003;52.012;4.346;2023-04-03T07:30:34;4.07;;;2.97;;
51987;SDS011;38003;52.012;4.346;2023-04-03T07:33:02;3.80;;;2.30;;
51987;SDS011;38003;52.012;4.346;2023-04-03T07:35:31;8.17;;;2.90;;
51987;SDS011;38003;52.012;4.346;2023-04-03T07:38:00;3.97;;;2.53;;
51987;SDS011;38003;52.012;4.346;2023-04-03T07:40:29;6.20;;;2.90;;
51987;SDS011;38003;52.012;4.346;2023-04-03T07:42:57;4.37;;;2.50;;
51987;SDS011;38003;52.012;4.346;2023-04-03T07:45:25;5.67;;;2.30;;
51987;SDS011;38003;52.012;4.346;2023-04-03T07:47:54;5.87;;;2.20;;
51987;SDS011;38003;52.012;4.346;2023-04-03T07:50:22;3.50;;;2.10;;
51987;SDS011;38003;52.012;4.346;2023-04-03T07:52:51;4.93;;;1.97;;
51987;SDS011;38003;52.012;4.346;2023-04-03T07:55:22;6.27;;;1.67;;
51987;SDS011;38003;52.012;4.346;2023-04-03T07:57:50;4.93;;;2.10;;
51987;SDS011;38003;52.012;4.346;2023-04-03T08:00:18;5.27;;;2.27;;
51987;SDS011;38003;52.012;4.346;2023-04-03T08:02:46;5.93;;;2.23;;
51987;SDS011;38003;52.012;4.346;2023-04-03T08:05:18;5.00;;;2.00;;
51987;SDS011;38003;52.012;4.346;2023-04-03T08:07:46;3.97;;;2.10;;
51987;SDS011;38003;52.012;4.346;2023-04-03T08:10:15;4.33;;;2.00;;
51987;SDS011;38003;52.012;4.346;2023-04-03T08:12:46;4.23;;;2.10;;
51987;SDS011;38003;52.012;4.346;2023-04-03T08:15:14;4.77;;;2.90;;
51987;SDS011;38003;52.012;4.346;2023-04-03T08:17:43;4.40;;;2.07;;
51987;SDS011;38003;52.012;4.346;2023-04-03T08:20:11;5.73;;;2.07;;
51987;SDS011;38003;52.012;4.346;2023-04-03T08:22:40;6.97;;;2.17;;
51987;SDS011;38003;52.012;4.346;2023-04-03T08:25:08;6.30;;;2.07;;
51987;SDS011;38003;52.012;4.346;2023-04-03T08:27:36;5.53;;;2.00;;
51987;SDS011;38003;52.012;4.346;2023-04-03T08:30:07;4.67;;;2.03;;
51987;SDS011;38003;52.012;4.346;2023-04-03T08:32:36;5.57;;;1.70;;
51987;SDS011;38003;52.012;4.346;2023-04-03T08:35:04;6.23;;;1.90;;
51987;SDS011;38003;52.012;4.346;2023-04-03T08:37:34;3.63;;;1.80;;
51987;SDS011;38003;52.012;4.346;2023-04-03T08:40:03;6.40;;;2.13;;
51987;SDS011;38003;52.012;4.346;2023-04-03T08:42:36;5.20;;;2.17;;
51987;SDS011;38003;52.012;4.346;2023-04-03T08:45:09;5.67;;;1.80;;
51987;SDS011;38003;52.012;4.346;2023-04-03T08:47:39;3.33;;;1.83;;
51987;SDS011;38003;52.012;4.346;2023-04-03T08:50:11;5.50;;;2.30;;
51987;SDS011;38003;52.012;4.346;2023-04-03T08:52:41;7.73;;;2.00;;
51987;SDS011;38003;52.012;4.346;2023-04-03T08:55:13;3.97;;;1.60;;
51987;SDS011;38003;52.012;4.346;2023-04-03T08:57:44;4.93;;;2.20;;
51987;SDS011;38003;52.012;4.346;2023-04-03T09:00:17;3.73;;;1.70;;
51987;SDS011;38003;52.012;4.346;2023-04-03T09:02:46;4.17;;;1.83;;
51987;SDS011;38003;52.012;4.346;2023-04-03T09:05:16;4.50;;;1.70;;
51987;SDS011;38003;52.012;4.346;2023-04-03T09:07:46;7.03;;;2.30;;
51987;SDS011;38003;52.012;4.346;2023-04-03T09:10:23;7.53;;;1.60;;
51987;SDS011;38003;52.012;4.346;2023-04-03T09:12:53;4.93;;;1.47;;
51987;SDS011;38003;52.012;4.346;2023-04-03T09:15:27;2.03;;;1.50;;
51987;SDS011;38003;52.012;4.346;2023-04-03T09:18:04;6.53;;;1.57;;
51987;SDS011;38003;52.012;4.346;2023-04-03T09:20:38;4.53;;;1.90;;
51987;SDS011;38003;52.012;4.346;2023-04-03T09:23:15;5.07;;;1.37;;
51987;SDS011;38003;52.012;4.346;2023-04-03T09:25:45;1.87;;;1.23;;
51987;SDS011;38003;52.012;4.346;2023-04-03T09:28:13;1.60;;;1.23;;
51987;SDS011;38003;52.012;4.346;2023-04-03T09:30:43;3.23;;;1.30;;
51987;SDS011;38003;52.012;4.346;2023-04-03T09:33:11;3.27;;;1.13;;
51987;SDS011;38003;52.012;4.346;2023-04-03T09:35:40;2.30;;;1.00;;
51987;SDS011;38003;52.012;4.346;2023-04-03T09:38:15;12.00;;;2.10;;
51987;SDS011;38003;52.012;4.346;2023-04-03T09:40:44;2.00;;;1.27;;
51987;SDS011;38003;52.012;4.346;2023-04-03T09:49:03;2.83;;;1.00;;
51987;SDS011;38003;52.012;4.346;2023-04-03T09:51:35;1.33;;;0.90;;
51987;SDS011;38003;52.012;4.346;2023-04-03T09:54:24;1.47;;;0.90;;
51987;SDS011;38003;52.012;4.346;2023-04-03T09:56:53;1.30;;;0.97;;
51987;SDS011;38003;52.012;4.346;2023-04-03T09:59:22;2.40;;;1.07;;
51987;SDS011;38003;52.012;4.346;2023-04-03T10:01:57;3.37;;;1.20;;
51987;SDS011;38003;52.012;4.346;2023-04-03T10:04:28;2.23;;;0.93;;
51987;SDS011;38003;52.012;4.346;2023-04-03T10:07:04;2.73;;;1.20;;
51987;SDS011;38003;52.012;4.346;2023-04-03T10:09:54;1.33;;;0.83;;
51987;SDS011;38003;52.012;4.346;2023-04-03T10:12:23;3.23;;;0.73;;
51987;SDS011;38003;52.012;4.346;2023-04-03T10:14:55;2.03;;;0.90;;
51987;SDS011;38003;52.012;4.346;2023-04-03T10:17:26;1.13;;;0.80;;
51987;SDS011;38003;52.012;4.346;2023-04-03T10:19:57;2.70;;;1.07;;
51987;SDS011;38003;52.012;4.346;2023-04-03T10:22:28;3.33;;;0.83;;
51987;SDS011;38003;52.012;4.346;2023-04-03T10:25:05;1.83;;;1.07;;
51987;SDS011;38003;52.012;4.346;2023-04-03T10:27:39;1.97;;;1.20;;
51987;SDS011;38003;52.012;4.346;2023-04-03T10:30:15;4.27;;;0.97;;
51987;SDS011;38003;52.012;4.346;2023-04-03T10:32:51;2.33;;;1.27;;
51987;SDS011;38003;52.012;4.346;2023-04-03T10:35:26;1.50;;;1.00;;
51987;SDS011;38003;52.012;4.346;2023-04-03T10:38:00;4.27;;;1.17;;
51987;SDS011;38003;52.012;4.346;2023-04-03T10:40:33;1.97;;;1.00;;
51987;SDS011;38003;52.012;4.346;2023-04-03T10:43:04;3.13;;;1.20;;
51987;SDS011;38003;52.012;4.346;2023-04-03T10:45:40;2.70;;;1.20;;
51987;SDS011;38003;52.012;4.346;2023-04-03T10:48:14;1.97;;;1.10;;
51987;SDS011;38003;52.012;4.346;2023-04-03T10:50:48;1.90;;;1.10;;
51987;SDS011;38003;52.012;4.346;2023-04-03T10:53:20;1.87;;;1.10;;
51987;SDS011;38003;52.012;4.346;2023-04-03T10:55:50;2.10;;;1.33;;
51987;SDS011;38003;52.012;4.346;2023-04-03T10:58:24;4.20;;;1.20;;
51987;SDS011;38003;52.012;4.346;2023-04-03T11:00:54;4.80;;;1.30;;
51987;SDS011;38003;52.012;4.346;2023-04-03T11:03:27;3.47;;;1.10;;
51987;SDS011;38003;52.012;4.346;2023-04-03T11:05:59;1.73;;;0.87;;
51987;SDS011;38003;52.012;4.346;2023-04-03T11:08:29;2.93;;;0.90;;
51987;SDS011;38003;52.012;4.346;2023-04-03T11:11:03;0.90;;;0.70;;
51987;SDS011;38003;52.012;4.346;2023-04-03T11:13:33;1.47;;;0.90;;
51987;SDS011;38003;52.012;4.346;2023-04-03T11:16:02;1.33;;;0.70;;
51987;SDS011;38003;52.012;4.346;2023-04-03T11:18:32;1.53;;;1.00;;
51987;SDS011;38003;52.012;4.346;2023-04-03T11:21:06;2.80;;;1.07;;
51987;SDS011;38003;52.012;4.346;2023-04-03T11:23:35;1.30;;;1.00;;
51987;SDS011;38003;52.012;4.346;2023-04-03T11:26:15;1.57;;;1.00;;
51987;SDS011;38003;52.012;4.346;2023-04-03T11:28:44;2.57;;;1.00;;
51987;SDS011;38003;52.012;4.346;2023-04-03T11:31:15;1.97;;;1.07;;
51987;SDS011;38003;52.012;4.346;2023-04-03T11:33:51;1.83;;;1.07;;
51987;SDS011;38003;52.012;4.346;2023-04-03T11:36:30;2.67;;;1.27;;
51987;SDS011;38003;52.012;4.346;2023-04-03T11:39:07;1.07;;;0.80;;
51987;SDS011;38003;52.012;4.346;2023-04-03T11:41:37;2.20;;;1.20;;
51987;SDS011;38003;52.012;4.346;2023-04-03T11:44:30;1.93;;;1.07;;
51987;SDS011;38003;52.012;4.346;2023-04-03T11:47:00;1.97;;;0.90;;
51987;SDS011;38003;52.012;4.346;2023-04-03T11:55:01;1.67;;;0.97;;
51987;SDS011;38003;52.012;4.346;2023-04-03T11:57:43;2.90;;;1.17;;
51987;SDS011;38003;52.012;4.346;2023-04-03T12:02:59;1.90;;;1.20;;
51987;SDS011;38003;52.012;4.346;2023-04-03T12:05:28;2.33;;;0.90;;
51987;SDS011;38003;52.012;4.346;2023-04-03T12:08:16;2.33;;;1.00;;
51987;SDS011;38003;52.012;4.346;2023-04-03T12:13:36;1.40;;;0.63;;
51987;SDS011;38003;52.012;4.346;2023-04-03T12:16:04;0.77;;;0.50;;
51987;SDS011;38003;52.012;4.346;2023-04-03T12:21:19;1.20;;;0.60;;
51987;SDS011;38003;52.012;4.346;2023-04-03T12:23:59;1.03;;;0.80;;
51987;SDS011;38003;52.012;4.346;2023-04-03T12:26:30;1.07;;;0.70;;
51987;SDS011;38003;52.012;4.346;2023-04-03T12:29:17;1.23;;;0.60;;
51987;SDS011;38003;52.012;4.346;2023-04-03T12:31:52;1.07;;;0.60;;
51987;SDS011;38003;52.012;4.346;2023-04-03T12:34:29;2.03;;;0.70;;
51987;SDS011;38003;52.012;4.346;2023-04-03T12:37:03;1.53;;;0.70;;
51987;SDS011;38003;52.012;4.346;2023-04-03T12:39:46;3.57;;;1.43;;
51987;SDS011;38003;52.012;4.346;2023-04-03T12:42:23;3.07;;;1.07;;
51987;SDS011;38003;52.012;4.346;2023-04-03T12:44:59;2.93;;;0.57;;
51987;SDS011;38003;52.012;4.346;2023-04-03T12:47:31;1.73;;;0.50;;
51987;SDS011;38003;52.012;4.346;2023-04-03T12:50:02;1.07;;;0.60;;
51987;SDS011;38003;52.012;4.346;2023-04-03T12:52:36;5.23;;;0.80;;
51987;SDS011;38003;52.012;4.346;2023-04-03T12:55:07;0.70;;;0.60;;
51987;SDS011;38003;52.012;4.346;2023-04-03T12:57:36;0.60;;;0.57;;
51987;SDS011;38003;52.012;4.346;2023-04-03T13:02:49;1.20;;;0.80;;
51987;SDS011;38003;52.012;4.346;2023-04-03T13:05:18;1.33;;;0.70;;
51987;SDS011;38003;52.012;4.346;2023-04-03T13:07:48;2.63;;;0.90;;
51987;SDS011;38003;52.012;4.346;2023-04-03T13:10:17;5.50;;;0.60;;
51987;SDS011;38003;52.012;4.346;2023-04-03T13:12:47;0.87;;;0.60;;
51987;SDS011;38003;52.012;4.346;2023-04-03T13:15:17;1.10;;;0.70;;
51987;SDS011;38003;52.012;4.346;2023-04-03T13:17:46;1.60;;;0.90;;
51987;SDS011;38003;52.012;4.346;2023-04-03T13:20:19;0.90;;;0.70;;
51987;SDS011;38003;52.012;4.346;2023-04-03T13:22:49;3.40;;;0.90;;
51987;SDS011;38003;52.012;4.346;2023-04-03T13:25:19;0.93;;;0.67;;
51987;SDS011;38003;52.012;4.346;2023-04-03T13:27:49;1.23;;;0.90;;
51987;SDS011;38003;52.012;4.346;2023-04-03T13:30:36;1.77;;;1.00;;
51987;SDS011;38003;52.012;4.346;2023-04-03T13:33:17;1.73;;;0.90;;
51987;SDS011;38003;52.012;4.346;2023-04-03T13:35:48;0.87;;;0.73;;
51987;SDS011;38003;52.012;4.346;2023-04-03T13:38:22;1.07;;;0.80;;
51987;SDS011;38003;52.012;4.346;2023-04-03T13:40:51;3.13;;;1.30;;
51987;SDS011;38003;52.012;4.346;2023-04-03T13:43:21;1.40;;;0.90;;
51987;SDS011;38003;52.012;4.346;2023-04-03T13:45:55;3.40;;;0.97;;
51987;SDS011;38003;52.012;4.346;2023-04-03T13:48:24;2.87;;;1.07;;
51987;SDS011;38003;52.012;4.346;2023-04-03T13:50:58;1.30;;;0.87;;
51987;SDS011;38003;52.012;4.346;2023-04-03T13:53:27;2.53;;;1.00;;
51987;SDS011;38003;52.012;4.346;2023-04-03T13:55:57;1.93;;;1.07;;
51987;SDS011;38003;52.012;4.346;2023-04-03T13:58:26;1.60;;;0.90;;
51987;SDS011;38003;52.012;4.346;2023-04-03T14:00:56;2.00;;;1.10;;
51987;SDS011;38003;52.012;4.346;2023-04-03T14:03:30;2.70;;;1.13;;
51987;SDS011;38003;52.012;4.346;2023-04-03T14:06:00;4.60;;;0.90;;
51987;SDS011;38003;52.012;4.346;2023-04-03T14:08:30;2.70;;;1.07;;
51987;SDS011;38003;52.012;4.346;2023-04-03T14:11:09;3.43;;;1.50;;
51987;SDS011;38003;52.012;4.346;2023-04-03T14:13:39;1.70;;;1.30;;
51987;SDS011;38003;52.012;4.346;2023-04-03T14:16:11;2.73;;;1.00;;
51987;SDS011;38003;52.012;4.346;2023-04-03T14:18:41;3.87;;;1.13;;
51987;SDS011;38003;52.012;4.346;2023-04-03T14:21:12;1.87;;;1.10;;
51987;SDS011;38003;52.012;4.346;2023-04-03T14:23:40;1.70;;;1.00;;
51987;SDS011;38003;52.012;4.346;2023-04-03T14:26:10;1.57;;;1.00;;
51987;SDS011;38003;52.012;4.346;2023-04-03T14:28:39;3.63;;;1.17;;
51987;SDS011;38003;52.012;4.346;2023-04-03T14:31:10;1.40;;;0.97;;
51987;SDS011;38003;52.012;4.346;2023-04-03T14:33:39;1.70;;;1.00;;
51987;SDS011;38003;52.012;4.346;2023-04-03T14:36:12;2.10;;;1.13;;
51987;SDS011;38003;52.012;4.346;2023-04-03T14:38:41;2.43;;;1.30;;
51987;SDS011;38003;52.012;4.346;2023-04-03T14:41:10;3.07;;;1.10;;
51987;SDS011;38003;52.012;4.346;2023-04-03T14:43:42;1.80;;;0.90;;
51987;SDS011;38003;52.012;4.346;2023-04-03T14:46:12;1.83;;;0.90;;
51987;SDS011;38003;52.012;4.346;2023-04-03T14:48:41;3.40;;;0.93;;
51987;SDS011;38003;52.012;4.346;2023-04-03T14:51:10;2.27;;;1.00;;
51987;SDS011;38003;52.012;4.346;2023-04-03T14:53:41;2.10;;;1.30;;
51987;SDS011;38003;52.012;4.346;2023-04-03T14:56:11;1.50;;;1.00;;
51987;SDS011;38003;52.012;4.346;2023-04-03T14:58:40;2.17;;;0.97;;
51987;SDS011;38003;52.012;4.346;2023-04-03T15:01:09;3.97;;;1.50;;
51987;SDS011;38003;52.012;4.346;2023-04-03T15:03:37;1.30;;;1.00;;
51987;SDS011;38003;52.012;4.346;2023-04-03T15:06:07;2.73;;;1.03;;
51987;SDS011;38003;52.012;4.346;2023-04-03T15:08:36;5.17;;;1.30;;
51987;SDS011;38003;52.012;4.346;2023-04-03T15:11:09;1.77;;;0.97;;
51987;SDS011;38003;52.012;4.346;2023-04-03T15:13:37;3.10;;;1.10;;
51987;SDS011;38003;52.012;4.346;2023-04-03T15:16:10;2.03;;;1.03;;
51987;SDS011;38003;52.012;4.346;2023-04-03T15:18:40;3.50;;;1.30;;
51987;SDS011;38003;52.012;4.346;2023-04-03T15:21:09;1.90;;;1.10;;
51987;SDS011;38003;52.012;4.346;2023-04-03T15:23:37;3.07;;;1.47;;
51987;SDS011;38003;52.012;4.346;2023-04-03T15:26:05;2.10;;;1.13;;
51987;SDS011;38003;52.012;4.346;2023-04-03T15:28:37;1.77;;;0.90;;
51987;SDS011;38003;52.012;4.346;2023-04-03T15:31:06;1.60;;;1.10;;